Time;durP1;ratioP1;P1;durP2;ratioP2;P2;SDS_P1;SDS_P2;PMS_P1;PMS_P2;Temp;Humidity;BMP_temperature;BMP_pressure;BME280_temperature;BME280_humidity;BME280_pressure;Samples;Min_cycle;Max_cycle;Signal;HPM_P1;HPM_P2
2021/08/17 00:01:15;;;;;;;5.53;3.80;;;17.00;99.90;;;;;;5052913;28;20045;-88
2021/08/17 00:03:41;;;;;;;5.43;4.10;;;16.90;99.90;;;;;;5052538;28;20507;-89
2021/08/17 00:06:08;;;;;;;5.35;4.20;;;16.80;99.90;;;;;;5052486;28;20031;-88
2021/08/17 00:08:34;;;;;;;6.50;4.15;;;16.80;99.90;;;;;;5052593;28;20021;-88
2021/08/17 00:11:00;;;;;;;6.25;4.15;;;16.90;99.90;;;;;;5052567;28;20120;-88
2021/08/17 00:13:26;;;;;;;5.20;3.20;;;17.10;99.90;;;;;;5052542;28;20108;-88
2021/08/17 00:15:52;;;;;;;6.40;3.83;;;17.00;99.90;;;;;;5052544;28;20044;-88
2021/08/17 00:18:18;;;;;;;4.32;2.90;;;16.90;99.90;;;;;;5052218;28;20032;-88
2021/08/17 00:20:44;;;;;;;5.28;3.97;;;16.90;99.90;;;;;;5052713;28;20503;-89
2021/08/17 00:23:10;;;;;;;4.90;3.88;;;16.60;99.90;;;;;;5052130;28;20499;-88
2021/08/17 00:25:36;;;;;;;6.10;3.63;;;16.40;99.90;;;;;;5052269;28;20106;-88
2021/08/17 00:28:02;;;;;;;6.28;3.95;;;16.70;99.90;;;;;;5052187;28;20152;-89
2021/08/17 00:30:28;;;;;;;5.65;3.83;;;16.40;99.90;;;;;;5052989;28;20027;-89
2021/08/17 00:32:55;;;;;;;4.80;3.47;;;16.30;99.90;;;;;;5052990;28;20029;-88
2021/08/17 00:35:25;;;;;;;8.15;3.40;;;16.70;99.90;;;;;;5052246;28;20067;-89
2021/08/17 00:37:51;;;;;;;6.45;3.40;;;16.70;99.90;;;;;;5052055;28;20017;-88
2021/08/17 00:40:17;;;;;;;5.35;3.50;;;16.60;99.90;;;;;;5066772;28;20025;-88
2021/08/17 00:42:44;;;;;;;4.72;3.28;;;16.50;99.90;;;;;;5075717;28;20028;-88
2021/08/17 00:45:24;;;;;;;6.00;3.72;;;16.20;99.90;;;;;;5058929;28;20036;-88
2021/08/17 00:47:54;;;;;;;5.55;3.90;;;16.00;99.90;;;;;;5052711;28;20393;-88
2021/08/17 00:50:21;;;;;;;4.90;3.30;;;16.20;99.90;;;;;;5052476;28;20090;-88
2021/08/17 00:52:50;;;;;;;6.45;3.65;;;16.40;99.90;;;;;;5052001;28;20071;-88
2021/08/17 00:55:17;;;;;;;6.05;3.25;;;16.40;99.90;;;;;;5051960;28;20519;-89
2021/08/17 00:57:48;;;;;;;4.72;3.38;;;16.10;99.90;;;;;;5054137;28;20461;-88
2021/08/17 01:00:15;;;;;;;4.95;3.50;;;16.00;99.90;;;;;;5055912;28;20017;-88
2021/08/17 01:02:41;;;;;;;4.07;3.40;;;16.10;99.90;;;;;;5057023;28;20473;-88
2021/08/17 01:05:08;;;;;;;5.15;3.00;;;16.30;99.90;;;;;;5055994;28;20036;-88
2021/08/17 01:07:35;;;;;;;5.25;3.75;;;16.30;99.90;;;;;;5055741;28;20370;-88
2021/08/17 01:10:01;;;;;;;5.82;3.22;;;16.20;99.90;;;;;;5056494;28;20055;-87
2021/08/17 01:12:27;;;;;;;6.97;3.40;;;16.10;99.90;;;;;;5055890;28;20029;-88
2021/08/17 01:14:53;;;;;;;5.18;3.30;;;16.20;99.90;;;;;;5055645;28;20021;-88
2021/08/17 01:17:20;;;;;;;4.90;3.00;;;16.20;99.90;;;;;;5056141;28;20021;-88
2021/08/17 01:19:46;;;;;;;5.40;3.42;;;16.00;99.90;;;;;;5055493;28;20073;-88
2021/08/17 01:22:12;;;;;;;6.85;3.15;;;15.90;99.90;;;;;;5055600;28;20115;-88
2021/08/17 01:24:38;;;;;;;5.68;3.65;;;15.70;99.90;;;;;;5055450;28;20040;-88
2021/08/17 01:27:04;;;;;;;7.10;3.40;;;15.80;99.90;;;;;;5055276;28;20123;-88
2021/08/17 01:29:30;;;;;;;7.22;3.42;;;15.90;99.90;;;;;;5055555;28;20127;-88
2021/08/17 01:31:57;;;;;;;7.03;3.60;;;16.20;99.90;;;;;;5055579;28;20489;-88
2021/08/17 01:34:23;;;;;;;6.90;3.58;;;16.10;99.90;;;;;;5056450;28;20028;-88
2021/08/17 01:36:49;;;;;;;9.43;3.50;;;16.00;99.90;;;;;;5055407;28;20032;-88
2021/08/17 01:39:16;;;;;;;6.00;3.35;;;16.00;99.90;;;;;;5055207;28;20029;-88
2021/08/17 01:41:44;;;;;;;6.53;3.30;;;16.00;99.90;;;;;;5056551;28;20052;-88
2021/08/17 01:44:12;;;;;;;7.00;3.78;;;15.90;99.90;;;;;;5055263;28;20032;-88
2021/08/17 01:46:46;;;;;;;5.47;3.25;;;15.90;99.90;;;;;;5054862;28;20036;-88
2021/08/17 01:49:13;;;;;;;5.50;3.37;;;15.90;99.90;;;;;;5056491;28;20021;-88
2021/08/17 01:51:39;;;;;;;6.45;3.55;;;16.10;99.90;;;;;;5055310;28;20049;-88
2021/08/17 01:54:07;;;;;;;8.25;3.38;;;16.20;99.90;;;;;;5054836;28;20063;-87
2021/08/17 01:56:33;;;;;;;8.05;3.63;;;16.10;99.90;;;;;;5056212;28;20125;-88
2021/08/17 01:59:03;;;;;;;4.45;3.28;;;16.10;99.90;;;;;;5055286;28;20025;-88
2021/08/17 02:01:29;;;;;;;5.32;3.30;;;16.10;99.90;;;;;;5055765;28;20033;-88
2021/08/17 02:03:55;;;;;;;8.07;3.38;;;16.10;99.90;;;;;;5055862;28;20053;-88
2021/08/17 02:06:22;;;;;;;5.95;3.70;;;15.90;99.90;;;;;;5056949;28;20440;-88
2021/08/17 02:08:47;;;;;;;8.88;3.25;;;16.10;99.90;;;;;;5054955;28;20021;-88
2021/08/17 02:11:13;;;;;;;4.43;3.15;;;16.00;99.90;;;;;;5056606;28;20078;-88
2021/08/17 02:13:39;;;;;;;6.72;2.97;;;15.90;99.90;;;;;;5055753;28;20081;-88
2021/08/17 02:16:05;;;;;;;4.93;3.50;;;15.60;99.90;;;;;;5055371;28;20025;-89
2021/08/17 02:18:33;;;;;;;9.73;4.22;;;15.80;99.90;;;;;;5056140;28;20021;-88
2021/08/17 02:20:59;;;;;;;6.05;3.30;;;15.60;99.90;;;;;;5055430;28;20092;-88
2021/08/17 02:23:26;;;;;;;6.22;3.40;;;15.30;99.90;;;;;;5055326;28;20442;-87
2021/08/17 02:25:52;;;;;;;8.57;3.72;;;15.30;99.90;;;;;;5055030;28;20485;-87
2021/08/17 02:28:19;;;;;;;5.78;3.50;;;15.10;99.90;;;;;;5055177;28;20480;-88
2021/08/17 02:30:46;;;;;;;6.70;3.47;;;15.20;99.90;;;;;;5055437;28;20021;-88
2021/08/17 02:33:12;;;;;;;4.90;3.38;;;15.30;99.90;;;;;;5055713;28;20021;-86
2021/08/17 02:35:38;;;;;;;5.72;3.30;;;15.30;99.90;;;;;;5054987;28;20477;-88
2021/08/17 02:38:05;;;;;;;5.38;3.58;;;15.60;99.90;;;;;;5054936;28;20079;-88
2021/08/17 02:40:32;;;;;;;7.95;3.67;;;15.40;99.90;;;;;;5055357;28;20107;-88
2021/08/17 02:42:57;;;;;;;6.20;3.60;;;15.50;99.90;;;;;;5055022;28;20029;-88
2021/08/17 02:45:23;;;;;;;6.65;3.50;;;15.50;99.90;;;;;;5055346;28;20541;-88
2021/08/17 02:47:49;;;;;;;8.70;3.20;;;15.50;99.90;;;;;;5055237;28;20489;-88
2021/08/17 02:50:14;;;;;;;5.47;3.15;;;15.60;99.90;;;;;;5063403;28;20024;-88
2021/08/17 02:52:40;;;;;;;8.43;3.42;;;15.60;99.90;;;;;;5076137;28;20139;-88
2021/08/17 02:55:07;;;;;;;6.90;3.30;;;15.70;99.90;;;;;;5066237;28;20029;-88
2021/08/17 02:57:33;;;;;;;7.18;3.47;;;15.90;99.90;;;;;;5056112;28;20024;-87
2021/08/17 02:59:58;;;;;;;6.72;3.55;;;15.70;99.90;;;;;;5054810;28;20503;-88
2021/08/17 03:02:26;;;;;;;9.70;3.50;;;15.40;99.90;;;;;;5056580;28;20028;-88
2021/08/17 03:04:52;;;;;;;7.13;3.63;;;15.40;99.90;;;;;;5055661;28;20068;-89
2021/08/17 03:07:18;;;;;;;5.00;3.13;;;15.50;99.90;;;;;;5055324;28;20054;-88
2021/08/17 03:09:43;;;;;;;8.35;3.17;;;15.40;99.90;;;;;;5055320;28;20029;-89
2021/08/17 03:12:09;;;;;;;5.90;3.15;;;15.30;99.90;;;;;;5055040;28;20088;-89
2021/08/17 03:14:35;;;;;;;5.15;3.25;;;15.00;99.90;;;;;;5055071;28;20111;-88
2021/08/17 03:17:01;;;;;;;5.88;3.50;;;15.20;99.90;;;;;;5054255;28;20032;-89
2021/08/17 03:19:26;;;;;;;5.53;3.08;;;14.90;99.90;;;;;;5054665;28;20029;-89
2021/08/17 03:21:52;;;;;;;7.20;3.83;;;14.90;99.90;;;;;;5055079;28;20036;-89
2021/08/17 03:24:17;;;;;;;6.18;3.20;;;15.00;99.90;;;;;;5055146;28;20025;-89
2021/08/17 03:26:43;;;;;;;11.02;3.40;;;14.90;99.90;;;;;;5054734;28;20020;-88
2021/08/17 03:29:09;;;;;;;4.78;3.17;;;15.00;99.90;;;;;;5054731;28;20021;-88
2021/08/17 03:31:35;;;;;;;6.78;3.35;;;15.00;99.90;;;;;;5054707;28;20116;-89
2021/08/17 03:34:01;;;;;;;6.10;3.28;;;14.90;99.90;;;;;;5053882;28;20057;-88
2021/08/17 03:36:26;;;;;;;7.60;3.05;;;14.70;99.90;;;;;;5054493;28;20479;-89
2021/08/17 03:38:52;;;;;;;4.05;2.80;;;14.90;99.90;;;;;;5055992;28;20063;-89
2021/08/17 03:41:18;;;;;;;6.32;3.08;;;14.50;99.90;;;;;;5054810;28;20389;-88
2021/08/17 03:43:44;;;;;;;6.18;3.35;;;14.10;99.90;;;;;;5054335;28;20025;-89
2021/08/17 03:46:09;;;;;;;5.10;3.22;;;14.10;99.90;;;;;;5055246;28;20449;-88
2021/08/17 03:48:35;;;;;;;5.97;3.38;;;14.50;99.90;;;;;;5054006;28;20025;-88
2021/08/17 03:51:01;;;;;;;9.05;3.55;;;14.60;99.90;;;;;;5061983;28;20497;-88
2021/08/17 03:53:27;;;;;;;5.35;3.50;;;14.80;99.90;;;;;;5077552;28;20475;-88
2021/08/17 03:55:53;;;;;;;6.05;3.35;;;14.50;99.90;;;;;;5077661;28;20030;-88
2021/08/17 03:58:19;;;;;;;6.03;3.60;;;14.60;99.90;;;;;;5077702;28;20032;-88
2021/08/17 04:00:45;;;;;;;4.95;2.70;;;14.60;99.90;;;;;;5077647;28;20564;-88
2021/08/17 04:03:11;;;;;;;6.35;3.45;;;15.00;99.90;;;;;;5077566;28;20031;-88
2021/08/17 04:05:37;;;;;;;5.93;3.20;;;15.10;99.90;;;;;;5076401;28;20020;-89
2021/08/17 04:08:05;;;;;;;6.03;3.40;;;14.90;99.90;;;;;;5077647;28;20017;-88
2021/08/17 04:10:31;;;;;;;9.40;3.80;;;15.10;99.90;;;;;;5077246;28;20089;-88
2021/08/17 04:12:56;;;;;;;7.35;3.28;;;14.60;99.90;;;;;;5077376;28;20028;-89
2021/08/17 04:15:22;;;;;;;11.00;3.55;;;14.10;99.90;;;;;;5077150;28;20128;-88
2021/08/17 04:17:49;;;;;;;6.03;3.10;;;13.70;99.90;;;;;;5078261;28;20170;-88
2021/08/17 04:20:15;;;;;;;7.25;3.30;;;13.70;99.90;;;;;;5076877;28;20017;-87
2021/08/17 04:22:41;;;;;;;8.20;3.22;;;13.80;99.90;;;;;;5076333;28;20035;-88
2021/08/17 04:25:07;;;;;;;6.03;3.22;;;13.90;99.90;;;;;;5076641;28;20480;-88
2021/08/17 04:27:33;;;;;;;4.82;3.20;;;13.60;99.90;;;;;;5077176;28;20113;-88
2021/08/17 04:29:59;;;;;;;7.03;3.38;;;13.70;99.90;;;;;;5076534;28;20024;-88
2021/08/17 04:32:24;;;;;;;5.55;3.47;;;13.50;99.90;;;;;;5076616;28;20030;-88
2021/08/17 04:34:50;;;;;;;4.47;3.10;;;13.90;99.90;;;;;;5076805;28;20020;-88
2021/08/17 04:37:16;;;;;;;6.10;3.22;;;14.20;99.90;;;;;;5076645;28;20487;-88
2021/08/17 04:39:41;;;;;;;9.13;3.50;;;14.40;99.90;;;;;;5094154;28;20020;-87
2021/08/17 04:42:07;;;;;;;8.20;3.40;;;14.60;99.90;;;;;;5076303;28;20032;-87
2021/08/17 04:44:34;;;;;;;4.82;3.42;;;14.60;99.90;;;;;;5076593;28;20067;-88
2021/08/17 04:47:00;;;;;;;6.28;3.70;;;14.50;99.90;;;;;;5076714;28;20494;-88
2021/08/17 04:49:25;;;;;;;10.30;3.50;;;14.50;99.90;;;;;;5076699;28;20215;-88
2021/08/17 04:51:51;;;;;;;5.93;3.22;;;14.60;99.90;;;;;;5076768;28;20044;-88
2021/08/17 04:54:17;;;;;;;5.35;3.20;;;14.60;99.90;;;;;;5076476;28;20395;-87
2021/08/17 04:56:42;;;;;;;6.65;3.55;;;14.80;99.90;;;;;;5076854;28;20020;-88
2021/08/17 04:59:08;;;;;;;6.40;3.40;;;14.60;99.90;;;;;;5095435;28;20028;-88
2021/08/17 05:01:34;;;;;;;7.63;3.33;;;14.40;99.90;;;;;;5089434;28;20051;-87
2021/08/17 05:04:00;;;;;;;4.50;3.05;;;14.70;99.90;;;;;;5095220;28;20490;-88
2021/08/17 05:06:25;;;;;;;6.55;3.58;;;14.70;99.90;;;;;;5081841;28;20203;-88
2021/08/17 05:08:51;;;;;;;5.97;2.90;;;14.60;99.90;;;;;;5096090;28;20020;-88
2021/08/17 05:11:17;;;;;;;4.55;3.30;;;14.60;99.90;;;;;;5076464;28;20164;-88
2021/08/17 05:13:42;;;;;;;6.50;3.15;;;14.30;99.90;;;;;;5077097;28;20020;-87
2021/08/17 05:16:11;;;;;;;8.98;3.40;;;14.00;99.90;;;;;;5095036;28;20153;-88
2021/08/17 05:18:37;;;;;;;6.82;3.30;;;14.20;99.90;;;;;;5077493;28;20038;-88
2021/08/17 05:21:03;;;;;;;6.85;3.20;;;13.90;99.90;;;;;;5076825;28;20036;-88
2021/08/17 05:23:29;;;;;;;7.20;3.35;;;14.10;99.90;;;;;;5076681;28;20028;-88
2021/08/17 05:25:55;;;;;;;5.25;3.15;;;14.00;99.90;;;;;;5076491;28;20097;-88
2021/08/17 05:28:22;;;;;;;7.47;3.08;;;14.20;99.90;;;;;;5075862;28;20502;-89
2021/08/17 05:30:48;;;;;;;5.65;3.20;;;14.30;99.90;;;;;;5094821;28;20503;-88
2021/08/17 05:33:14;;;;;;;5.28;3.17;;;14.60;99.90;;;;;;5076396;28;20024;-88
2021/08/17 05:35:42;;;;;;;5.45;3.20;;;14.50;99.90;;;;;;5076373;28;20475;-88
2021/08/17 05:38:08;;;;;;;30.17;5.10;;;14.30;99.90;;;;;;5076318;28;20016;-88
2021/08/17 05:40:34;;;;;;;38.05;5.32;;;14.50;99.90;;;;;;5076306;28;20031;-88
2021/08/17 05:43:03;;;;;;;83.80;7.80;;;14.80;99.90;;;;;;5094615;28;20113;-87
2021/08/17 05:45:29;;;;;;;43.50;5.65;;;14.90;99.90;;;;;;5079553;28;20094;-88
2021/08/17 05:47:55;;;;;;;87.80;8.35;;;15.10;99.90;;;;;;5079411;28;20413;-88
2021/08/17 05:50:21;;;;;;;34.63;4.68;;;15.00;99.90;;;;;;5079873;28;20115;-88
2021/08/17 05:52:47;;;;;;;8.20;3.53;;;15.10;99.90;;;;;;5079199;28;20066;-87
2021/08/17 05:55:13;;;;;;;6.53;3.30;;;15.40;99.90;;;;;;5079667;28;20032;-87
2021/08/17 05:57:39;;;;;;;7.22;3.53;;;15.60;99.90;;;;;;5079699;28;20042;-88
2021/08/17 06:00:09;;;;;;;14.13;3.55;;;15.50;99.90;;;;;;5079429;28;20081;-88
2021/08/17 06:02:35;;;;;;;11.32;3.83;;;15.50;99.90;;;;;;5097706;28;20035;-88
2021/08/17 06:05:01;;;;;;;11.57;3.92;;;15.60;99.90;;;;;;5078831;28;20391;-87
2021/08/17 06:07:26;;;;;;;7.18;3.80;;;15.60;99.90;;;;;;5083551;28;20024;-87
2021/08/17 06:09:52;;;;;;;6.65;3.70;;;15.80;99.90;;;;;;5079452;28;20028;-88
2021/08/17 06:12:18;;;;;;;9.85;3.67;;;15.60;99.90;;;;;;5079166;28;20024;-89
2021/08/17 06:14:44;;;;;;;15.50;3.63;;;15.60;99.90;;;;;;5079556;28;20016;-88
2021/08/17 06:17:09;;;;;;;13.02;3.58;;;15.70;99.90;;;;;;5079568;28;20035;-88
2021/08/17 06:19:35;;;;;;;11.95;4.07;;;15.70;99.90;;;;;;5079097;28;20032;-88
2021/08/17 06:22:01;;;;;;;11.70;4.10;;;16.00;99.90;;;;;;5079538;28;20028;-88
2021/08/17 06:24:27;;;;;;;8.93;3.78;;;16.10;99.90;;;;;;5079456;28;20031;-87
2021/08/17 06:26:53;;;;;;;8.43;4.05;;;16.20;99.90;;;;;;5097064;28;20031;-87
2021/08/17 06:29:18;;;;;;;7.35;3.65;;;16.30;99.90;;;;;;5079550;28;20051;-88
2021/08/17 06:31:44;;;;;;;6.65;3.28;;;16.20;99.90;;;;;;5079255;28;20083;-87
2021/08/17 06:34:10;;;;;;;11.07;4.25;;;16.40;99.90;;;;;;5079068;28;20020;-88
2021/08/17 06:36:36;;;;;;;23.88;5.00;;;16.30;99.90;;;;;;5078418;28;20028;-88
2021/08/17 06:39:06;;;;;;;12.80;3.85;;;16.40;99.90;;;;;;5079153;28;20024;-87
2021/08/17 06:41:31;;;;;;;8.05;3.97;;;16.50;99.90;;;;;;5079061;28;20487;-87
2021/08/17 06:43:57;;;;;;;7.20;3.97;;;16.50;99.90;;;;;;5078597;28;20024;-88
2021/08/17 06:46:23;;;;;;;11.38;4.55;;;16.40;99.90;;;;;;5078419;28;20474;-88
2021/08/17 06:48:49;;;;;;;8.82;4.72;;;16.20;99.90;;;;;;5078396;28;20028;-88
2021/08/17 06:51:14;;;;;;;11.82;4.75;;;16.10;99.90;;;;;;5079451;28;20040;-87
2021/08/17 06:53:40;;;;;;;9.07;4.53;;;16.10;99.90;;;;;;5078178;28;20051;-89
2021/08/17 06:56:07;;;;;;;12.18;4.68;;;16.00;99.90;;;;;;5078409;28;20115;-87
2021/08/17 06:58:33;;;;;;;8.88;4.43;;;16.10;99.90;;;;;;5078575;28;20028;-86
2021/08/17 07:00:58;;;;;;;8.05;4.55;;;16.20;99.90;;;;;;5078803;28;20035;-88
2021/08/17 07:03:24;;;;;;;7.90;4.20;;;16.20;99.90;;;;;;5079078;28;20078;-86
2021/08/17 07:05:50;;;;;;;8.75;4.30;;;16.30;99.90;;;;;;5078708;28;20035;-87
2021/08/17 07:08:16;;;;;;;8.40;4.53;;;16.30;99.90;;;;;;5085340;28;20096;-87
2021/08/17 07:10:43;;;;;;;10.20;4.22;;;16.30;99.90;;;;;;5117136;28;20024;-87
2021/08/17 07:13:10;;;;;;;10.00;5.03;;;16.40;99.90;;;;;;5085675;28;20023;-88
2021/08/17 07:15:35;;;;;;;9.57;4.55;;;16.50;99.90;;;;;;5079195;28;20089;-88
2021/08/17 07:18:01;;;;;;;9.00;5.20;;;16.60;99.90;;;;;;5078138;28;20020;-87
2021/08/17 07:20:27;;;;;;;10.02;5.25;;;16.20;99.90;;;;;;5078051;28;20040;-87
2021/08/17 07:22:53;;;;;;;9.88;5.38;;;16.10;99.90;;;;;;5096386;28;20028;-88
2021/08/17 07:25:18;;;;;;;10.07;5.30;;;16.30;99.90;;;;;;5077892;28;20020;-87
2021/08/17 07:27:44;;;;;;;11.40;5.40;;;16.40;99.90;;;;;;5077399;28;20553;-87
2021/08/17 07:30:14;;;;;;;14.60;5.65;;;16.30;99.90;;;;;;5078802;28;20074;-87
2021/08/17 07:32:41;;;;;;;12.15;5.28;;;16.50;99.90;;;;;;5077988;28;20376;-88
2021/08/17 07:35:09;;;;;;;12.00;5.10;;;16.50;99.90;;;;;;5077775;28;20016;-88
2021/08/17 07:37:35;;;;;;;9.20;5.35;;;16.60;99.90;;;;;;5077966;28;20507;-87
2021/08/17 07:40:01;;;;;;;8.50;5.30;;;16.80;99.90;;;;;;5078167;28;20463;-88
2021/08/17 07:42:27;;;;;;;7.90;5.00;;;16.70;99.90;;;;;;5077758;28;20024;-87
2021/08/17 07:44:53;;;;;;;10.52;5.30;;;16.80;99.90;;;;;;5077627;28;20020;-87
2021/08/17 07:47:18;;;;;;;9.43;5.97;;;16.90;99.90;;;;;;5077450;28;20496;-87
2021/08/17 07:49:44;;;;;;;10.57;5.40;;;16.90;99.90;;;;;;5077605;28;20126;-87
2021/08/17 07:52:10;;;;;;;10.00;5.78;;;16.90;99.90;;;;;;5077519;28;20086;-87
2021/08/17 07:54:38;;;;;;;10.15;5.03;;;17.10;99.90;;;;;;5077229;28;20102;-87
2021/08/17 07:57:08;;;;;;;10.63;5.88;;;17.20;99.90;;;;;;5077351;28;20024;-87
2021/08/17 07:59:33;;;;;;;8.15;5.38;;;17.20;99.90;;;;;;5077211;28;20028;-87
2021/08/17 08:01:59;;;;;;;9.13;5.60;;;17.00;99.90;;;;;;5076700;28;20081;-87
2021/08/17 08:04:25;;;;;;;8.23;5.57;;;17.00;99.90;;;;;;5075765;28;20028;-87
2021/08/17 08:06:54;;;;;;;11.88;6.25;;;17.00;99.90;;;;;;5075395;28;20482;-87
2021/08/17 08:09:20;;;;;;;11.38;6.25;;;17.00;99.90;;;;;;5075895;28;20021;-85
2021/08/17 08:11:45;;;;;;;10.80;6.18;;;16.90;99.90;;;;;;5076381;28;20138;-88
2021/08/17 08:14:11;;;;;;;12.82;5.80;;;17.00;99.90;;;;;;5076149;28;20021;-87
2021/08/17 08:16:37;;;;;;;9.15;6.07;;;17.00;99.90;;;;;;5076314;28;20055;-87
2021/08/17 08:19:03;;;;;;;10.80;6.55;;;17.30;99.90;;;;;;5075635;28;20020;-87
2021/08/17 08:21:32;;;;;;;8.98;6.10;;;17.40;99.90;;;;;;5075546;28;20028;-87
2021/08/17 08:23:57;;;;;;;9.52;6.30;;;17.60;99.90;;;;;;5075449;28;20135;-87
2021/08/17 08:26:23;;;;;;;8.63;5.68;;;17.90;99.90;;;;;;5075639;28;20111;-87
2021/08/17 08:28:49;;;;;;;10.45;6.03;;;18.20;99.90;;;;;;5075399;28;20020;-88
2021/08/17 08:31:15;;;;;;;11.57;5.45;;;18.40;99.90;;;;;;5075421;28;20016;-86
2021/08/17 08:33:40;;;;;;;7.15;4.95;;;18.70;99.90;;;;;;5075480;28;20543;-89
2021/08/17 08:36:09;;;;;;;9.00;5.22;;;18.40;99.90;;;;;;5075333;28;20032;-88
2021/08/17 08:38:36;;;;;;;8.43;5.18;;;18.10;99.90;;;;;;5075402;28;20580;-87
2021/08/17 08:41:02;;;;;;;9.45;5.60;;;18.00;99.90;;;;;;5075366;28;20030;-86
2021/08/17 08:43:28;;;;;;;8.30;5.13;;;18.10;99.90;;;;;;5093361;28;20027;-87
2021/08/17 08:45:54;;;;;;;8.10;5.20;;;18.30;99.90;;;;;;5093517;28;20024;-87
2021/08/17 08:48:22;;;;;;;10.00;5.03;;;18.30;99.90;;;;;;5094017;28;20476;-86
2021/08/17 08:50:48;;;;;;;9.32;5.50;;;18.40;99.90;;;;;;5075701;28;20383;-87
2021/08/17 08:53:16;;;;;;;9.07;5.18;;;18.40;99.90;;;;;;5075307;28;20033;-87
2021/08/17 08:55:42;;;;;;;12.18;5.53;;;18.60;99.90;;;;;;5075710;28;20056;-87
2021/08/17 08:58:08;;;;;;;7.05;5.32;;;18.60;99.90;;;;;;5075567;28;20020;-87
2021/08/17 09:00:34;;;;;;;9.70;4.82;;;18.70;99.90;;;;;;5075553;28;20027;-87
2021/08/17 09:03:00;;;;;;;6.97;4.85;;;18.90;99.90;;;;;;5075982;28;20020;-87
2021/08/17 09:05:25;;;;;;;8.27;5.20;;;19.00;99.90;;;;;;5075479;28;20369;-87
2021/08/17 09:07:52;;;;;;;7.15;4.78;;;19.10;99.90;;;;;;5075449;28;20103;-87
2021/08/17 09:10:20;;;;;;;7.75;4.85;;;19.00;99.90;;;;;;5086534;28;20024;-88
2021/08/17 09:12:48;;;;;;;7.75;5.10;;;18.90;99.90;;;;;;5087174;28;20043;-86
2021/08/17 09:15:19;;;;;;;8.63;4.75;;;18.90;99.90;;;;;;5075786;28;20020;-86
2021/08/17 09:18:00;;;;;;;7.50;4.95;;;18.70;99.90;;;;;;5093431;28;20597;-86
2021/08/17 09:20:32;;;;;;;6.55;4.32;;;18.40;99.90;;;;;;5079046;28;20020;-86
2021/08/17 09:23:17;;;;;;;8.43;5.07;;;18.30;99.90;;;;;;5078852;28;20021;-86
2021/08/17 09:25:43;;;;;;;6.88;4.43;;;18.40;99.90;;;;;;5078959;28;20024;-85
2021/08/17 09:28:33;;;;;;;7.47;4.63;;;18.30;99.90;;;;;;5078885;28;20111;-86
2021/08/17 09:31:02;;;;;;;8.52;5.15;;;18.20;99.90;;;;;;5078761;28;20074;-86
2021/08/17 09:33:39;;;;;;;8.13;4.20;;;18.50;99.90;;;;;;5079049;28;20047;-86
2021/08/17 09:36:05;;;;;;;6.28;4.15;;;18.50;99.90;;;;;;5078610;28;20169;-87
2021/08/17 09:38:32;;;;;;;8.00;4.63;;;18.60;99.90;;;;;;5078538;28;20428;-86
2021/08/17 09:40:59;;;;;;;7.53;4.47;;;19.00;99.90;;;;;;5078476;28;20024;-86
2021/08/17 09:43:26;;;;;;;5.68;3.97;;;19.00;99.90;;;;;;5078434;28;20024;-86
2021/08/17 09:45:52;;;;;;;7.50;4.32;;;19.00;99.90;;;;;;5096618;28;20025;-86
2021/08/17 09:48:29;;;;;;;6.65;4.50;;;18.80;99.90;;;;;;5096679;28;20024;-86
2021/08/17 09:50:55;;;;;;;5.90;4.47;;;18.70;99.90;;;;;;5078036;28;20090;-86
2021/08/17 09:53:22;;;;;;;6.93;4.40;;;18.90;99.90;;;;;;5078580;28;20026;-86
2021/08/17 09:55:56;;;;;;;7.93;4.63;;;19.00;99.90;;;;;;5078775;28;20059;-87
2021/08/17 09:58:35;;;;;;;12.88;4.63;;;19.10;99.90;;;;;;5078784;28;20074;-86
2021/08/17 10:01:06;;;;;;;8.27;4.97;;;19.30;99.90;;;;;;5078438;28;20028;-86
2021/08/17 10:03:33;;;;;;;6.35;4.38;;;19.00;99.90;;;;;;5078053;28;20020;-86
2021/08/17 10:05:59;;;;;;;9.85;5.40;;;18.90;99.90;;;;;;5077970;28;20035;-87
2021/08/17 10:08:31;;;;;;;8.00;5.15;;;19.30;99.90;;;;;;5078112;28;20020;-87
2021/08/17 10:10:58;;;;;;;8.82;5.38;;;19.40;99.90;;;;;;5077872;28;20579;-86
2021/08/17 10:13:27;;;;;;;8.80;4.82;;;19.40;99.90;;;;;;5095983;28;20024;-86
2021/08/17 10:15:53;;;;;;;8.15;4.93;;;19.30;99.90;;;;;;5077755;28;20054;-86
2021/08/17 10:18:23;;;;;;;8.65;5.18;;;19.20;99.90;;;;;;5095937;28;20417;-86
2021/08/17 10:20:52;;;;;;;6.97;4.53;;;19.00;99.90;;;;;;5077802;28;20111;-87
2021/08/17 10:23:20;;;;;;;7.07;4.35;;;19.40;99.90;;;;;;5078015;28;20028;-87
2021/08/17 10:25:51;;;;;;;7.90;4.22;;;19.90;99.90;;;;;;5077710;28;20582;-86
2021/08/17 10:28:35;;;;;;;7.38;4.40;;;20.20;99.90;;;;;;5077667;28;20035;-86
2021/08/17 10:31:12;;;;;;;8.18;4.88;;;19.90;99.90;;;;;;5077794;28;20020;-86
2021/08/17 10:33:46;;;;;;;7.68;4.93;;;19.90;99.90;;;;;;5077495;28;20066;-86
2021/08/17 10:36:31;;;;;;;6.88;4.60;;;19.90;99.90;;;;;;5077362;28;20024;-86
2021/08/17 10:38:57;;;;;;;6.40;4.55;;;20.00;99.90;;;;;;5077368;28;20051;-86
2021/08/17 10:41:26;;;;;;;6.75;4.65;;;20.00;99.90;;;;;;5077327;28;20024;-87
2021/08/17 10:43:51;;;;;;;6.80;4.63;;;20.20;99.90;;;;;;5077254;28;20035;-86
2021/08/17 10:46:17;;;;;;;8.00;4.78;;;20.20;99.90;;;;;;5077700;28;20464;-86
2021/08/17 10:51:37;;;;;;;7.85;4.65;;;20.40;99.90;;;;;;5095773;28;20051;-87
2021/08/17 10:54:03;;;;;;;8.77;5.00;;;20.30;99.90;;;;;;5096614;28;20031;-86
2021/08/17 10:56:37;;;;;;;7.70;4.90;;;20.50;99.90;;;;;;5078323;28;20028;-86
2021/08/17 10:59:03;;;;;;;10.30;4.85;;;20.50;99.90;;;;;;5078712;28;20027;-86
2021/08/17 11:01:35;;;;;;;8.40;4.60;;;20.70;99.90;;;;;;5078685;28;20024;-87
2021/08/17 11:04:00;;;;;;;10.32;4.60;;;21.40;99.90;;;;;;5087755;28;20024;-87
2021/08/17 11:06:39;;;;;;;5.68;4.30;;;21.90;99.90;;;;;;5083125;28;20038;-86
2021/08/17 11:09:09;;;;;;;7.47;4.40;;;22.50;99.90;;;;;;5077349;28;20396;-86
2021/08/17 11:11:37;;;;;;;6.53;5.05;;;22.70;99.90;;;;;;5077204;28;20438;-87
2021/08/17 11:14:15;;;;;;;6.38;4.45;;;22.50;99.90;;;;;;5094931;28;20024;-86
2021/08/17 11:16:53;;;;;;;6.70;4.20;;;22.50;99.90;;;;;;5076644;28;20391;-88
2021/08/17 11:19:20;;;;;;;7.28;4.18;;;22.30;99.20;;;;;;5076607;28;20030;-87
2021/08/17 11:21:51;;;;;;;7.53;4.07;;;22.40;99.90;;;;;;5076417;28;20103;-87
2021/08/17 11:24:22;;;;;;;6.70;4.20;;;22.60;99.90;;;;;;5076535;28;20035;-87
2021/08/17 11:27:11;;;;;;;5.63;4.47;;;23.30;99.90;;;;;;5076291;28;20028;-87
2021/08/17 11:29:46;;;;;;;7.90;4.72;;;22.60;99.10;;;;;;5076336;28;20024;-87
2021/08/17 11:32:24;;;;;;;6.10;4.50;;;23.20;99.70;;;;;;5076296;28;20016;-87
2021/08/17 11:34:50;;;;;;;8.13;4.30;;;24.20;98.20;;;;;;5076213;28;20032;-87
2021/08/17 11:37:16;;;;;;;7.13;4.13;;;24.80;99.60;;;;;;5076378;28;20025;-87
2021/08/17 11:39:45;;;;;;;6.03;4.18;;;24.70;94.60;;;;;;5076109;28;20115;-87
2021/08/17 11:42:19;;;;;;;6.32;4.20;;;24.40;96.10;;;;;;5075502;28;20391;-87
2021/08/17 11:44:49;;;;;;;7.72;4.15;;;25.00;95.60;;;;;;5094218;28;20073;-88
2021/08/17 11:47:18;;;;;;;7.78;3.97;;;25.50;96.40;;;;;;5075753;28;20028;-87
2021/08/17 11:49:45;;;;;;;4.97;4.03;;;25.70;94.80;;;;;;5075917;28;20070;-87
2021/08/17 11:52:15;;;;;;;7.00;4.25;;;26.00;94.60;;;;;;5093885;28;20495;-86
2021/08/17 11:54:59;;;;;;;9.95;4.45;;;25.90;92.40;;;;;;5075830;28;20019;-86
2021/08/17 11:57:36;;;;;;;7.00;3.97;;;25.90;92.70;;;;;;5075854;28;20032;-86
2021/08/17 12:00:07;;;;;;;6.20;4.53;;;25.90;92.50;;;;;;5075945;28;20322;-86
2021/08/17 12:02:33;;;;;;;5.85;4.10;;;25.30;92.30;;;;;;5075734;28;20067;-86
2021/08/17 12:05:01;;;;;;;6.60;3.90;;;24.00;94.90;;;;;;5075947;28;20048;-86
2021/08/17 12:07:29;;;;;;;7.45;4.75;;;22.90;94.80;;;;;;5075548;28;20498;-86
2021/08/17 12:10:03;;;;;;;6.10;4.32;;;22.50;96.20;;;;;;5075636;28;20047;-87
2021/08/17 12:13:11;;;;;;;6.68;4.22;;;22.70;96.60;;;;;;5075676;28;20047;-87
2021/08/17 12:15:46;;;;;;;9.85;4.43;;;24.20;95.30;;;;;;5075599;28;20052;-87
2021/08/17 12:18:22;;;;;;;5.68;3.35;;;25.50;93.90;;;;;;5075585;28;20027;-87
2021/08/17 12:21:11;;;;;;;6.05;4.15;;;25.80;94.30;;;;;;5075565;28;20012;-87
2021/08/17 12:23:44;;;;;;;6.05;3.70;;;26.00;92.20;;;;;;5075749;28;20031;-87
2021/08/17 12:26:29;;;;;;;6.50;4.05;;;26.10;91.60;;;;;;5093582;28;20110;-87
2021/08/17 12:28:56;;;;;;;5.03;4.00;;;25.80;91.70;;;;;;5075430;28;20039;-86
2021/08/17 12:31:32;;;;;;;6.47;4.10;;;24.70;92.90;;;;;;5093501;28;20419;-87
2021/08/17 12:34:09;;;;;;;7.40;3.88;;;24.70;92.30;;;;;;5075337;28;20085;-87
2021/08/17 12:36:37;;;;;;;4.85;4.00;;;25.30;92.40;;;;;;5075346;28;20432;-87
2021/08/17 12:39:07;;;;;;;5.22;4.50;;;25.50;91.50;;;;;;5075274;28;20024;-87
2021/08/17 12:41:35;;;;;;;6.22;4.32;;;24.70;92.20;;;;;;5075285;28;20032;-86
2021/08/17 12:44:12;;;;;;;5.28;3.90;;;25.30;92.10;;;;;;5093375;28;20020;-86
2021/08/17 12:46:38;;;;;;;5.93;3.80;;;25.80;90.30;;;;;;5075204;28;20070;-87
2021/08/17 12:49:03;;;;;;;5.07;3.75;;;25.20;90.80;;;;;;5075183;28;20020;-87
2021/08/17 12:51:30;;;;;;;4.72;3.78;;;24.60;91.40;;;;;;5093092;28;20047;-87